Malaviya Twenty — AUEV — position and weather

sailwx.info

Track history (hours):
 
Tides and Currents Weather Stations Pressure Air Temp Water Temp Dewpoint Dewpoint Depression Visibility Wind Speed Wind Dir Waves Ship Positions

Malaviya Twenty

Last reported at 2016-May-06 16:33 UTC. Time now 2016-May-06 16:46 UTC.
Position N 52°36' E 001°44'.

Length 72 m; draft 4.2 m.

Type: Ship. MMSI: 419504000.

Date/timePositionNaut miles runAvg speedWind from/ knotsBaromVisibWave heightAir tempDewpointWater temp
2016-May-06 16:33N 52°36' E 001°44'0 0.0
2016-May-06 15:33N 52°36' E 001°44'0 0.0
2016-May-06 14:33N 52°36' E 001°44'0 0.0
2016-May-06 13:33N 52°36' E 001°44'0 0.0
2016-May-06 12:33N 52°36' E 001°44'0 0.0
2016-May-06 11:33N 52°36' E 001°44'0 0.0
2016-May-06 10:33N 52°36' E 001°44'0 0.0
2016-May-06 09:33N 52°36' E 001°44'0 0.0
2016-May-06 08:33N 52°36' E 001°44'0 0.0
2016-May-06 07:33N 52°36' E 001°44'0 0.0
2016-May-06 06:33N 52°36' E 001°44'0 0.0
2016-May-06 05:33N 52°36' E 001°44'0 0.0
2016-May-06 04:33N 52°36' E 001°44'0 0.0
2016-May-06 03:33N 52°36' E 001°44'0 0.0
2016-May-06 02:33N 52°36' E 001°44'0 0.0
2016-May-06 01:33N 52°36' E 001°44'0 0.0
2016-May-06 00:33N 52°36' E 001°44'0 0.0
2016-May-05 23:32N 52°36' E 001°44'0 0.0
2016-May-05 22:32N 52°36' E 001°44'0 0.0
2016-May-05 21:32N 52°36' E 001°44'0 0.0
2016-May-05 20:32N 52°36' E 001°44'0 0.0
2016-May-05 19:32N 52°36' E 001°44'0 0.0
2016-May-05 18:32N 52°36' E 001°44'0 0.0
2016-May-05 17:32N 52°36' E 001°44'0 0.0
2016-May-05 16:32N 52°36' E 001°44'0 0.0
2016-May-05 15:32N 52°36' E 001°44'0 0.0
2016-May-05 14:32N 52°36' E 001°44'1 0.6
2016-May-05 13:31N 52°36' E 001°44'0 0.0
2016-May-05 12:31N 52°35' E 001°44'0 0.0
2016-May-05 11:31N 52°35' E 001°44'0 0.0
2016-May-05 10:31N 52°35' E 001°44'0 0.0
2016-May-05 09:31N 52°35' E 001°44'0 0.0
2016-May-05 08:31N 52°36' E 001°44'0 0.0
2016-May-05 07:31N 52°35' E 001°44'0 0.0
2016-May-05 06:31N 52°36' E 001°44'0 0.0
2016-May-05 05:32N 52°35' E 001°44'2 1.6
2016-May-05 04:33N 52°36' E 001°46'7 6.9
2016-May-05 03:33N 52°43' E 001°48'9 9.3
2016-May-05 02:33N 52°51' E 001°57'9 9.4
2016-May-05 01:33N 52°57' E 002°08'10 9.7
2016-May-05 00:33N 53°00' E 002°24'9 8.5
2016-May-04 23:29N 53°09' E 002°29'7 7.1
2016-May-04 22:27N 53°16' E 002°33'3 1.0
2016-May-04 19:08N 53°19' E 002°34'0 0.5
2016-May-04 18:12N 53°19' E 002°33'3 0.8
2016-May-04 14:33N 53°22' E 002°32'1 0.5
2016-May-04 13:33N 53°22' E 002°31'33 2.5
2016-May-04 00:33N 52°54' E 002°03'1010.3
2016-May-03 23:33N 52°46' E 001°52'10 9.7
2016-May-03 22:33N 52°37' E 001°46'2 2.3
2016-May-03 21:33N 52°36' E 001°44'0 0.0
2016-May-03 20:33N 52°36' E 001°44'0 0.1
2016-May-03 19:32N 52°35' E 001°44'1 1.3
2016-May-03 18:33N 52°34' E 001°45'6 6.3
2016-May-03 17:33N 52°41' E 001°46'1110.7
2016-May-03 16:33N 52°49' E 001°56'40 0.9
2016-May-01 19:05N 53°21' E 002°36'1 2.4
2016-May-01 18:33N 53°20' E 002°34'1 0.3
2016-May-01 16:23N 53°20' E 002°34'1 0.4
2016-May-01 14:08N 53°20' E 002°32'27 1.6
2016-Apr-30 21:16N 52°57' E 002°09'710.3
2016-Apr-30 20:33N 52°52' E 001°60'10 9.8
2016-Apr-30 19:33N 52°44' E 001°50'10 9.7
2016-Apr-30 18:33N 52°35' E 001°45'1 1.0
2016-Apr-30 17:31N 52°35' E 001°44'0 0.0
2016-Apr-30 16:31N 52°35' E 001°44'1 0.6
2016-Apr-30 15:33N 52°35' E 001°44'0 0.4
2016-Apr-30 14:33N 52°35' E 001°44'0 0.0
2016-Apr-30 13:33N 52°35' E 001°44'0 0.0
2016-Apr-30 12:33N 52°35' E 001°44'0 0.0
2016-Apr-30 11:33N 52°35' E 001°44'0 0.0
2016-Apr-30 10:33N 52°35' E 001°44'0 0.0
2016-Apr-30 09:29N 52°35' E 001°44'0 0.0
2016-Apr-30 08:32N 52°35' E 001°44'0 0.0
2016-Apr-30 07:32N 52°35' E 001°44'0 0.0
2016-Apr-30 06:32N 52°35' E 001°44'0 0.0
2016-Apr-30 05:32N 52°35' E 001°44'0 0.0
2016-Apr-30 04:32N 52°35' E 001°44'0 0.0
2016-Apr-30 03:32N 52°35' E 001°44'0 0.0
2016-Apr-30 02:32N 52°35' E 001°44'0 0.0
2016-Apr-30 01:32N 52°35' E 001°44'0 0.0
2016-Apr-30 00:32N 52°35' E 001°44'0 0.0
2016-Apr-29 23:32N 52°35' E 001°44'0 0.0
2016-Apr-29 22:32N 52°35' E 001°44'0 0.0
2016-Apr-29 21:32N 52°35' E 001°44'0 0.0
2016-Apr-29 20:32N 52°35' E 001°44'0 0.0
2016-Apr-29 19:32N 52°35' E 001°44'0 0.0
2016-Apr-29 18:32N 52°35' E 001°44'0 0.0
2016-Apr-29 17:32N 52°35' E 001°44'0 0.0
2016-Apr-29 16:32N 52°35' E 001°44'0 0.0
2016-Apr-29 15:32N 52°35' E 001°44'0 0.0
2016-Apr-29 14:32N 52°35' E 001°44'0 0.0
2016-Apr-29 13:32N 52°35' E 001°44'0 0.0
2016-Apr-29 12:32N 52°35' E 001°44'0 0.0
2016-Apr-29 11:32N 52°35' E 001°44'0 0.0
2016-Apr-29 10:32N 52°35' E 001°44'0 0.0
2016-Apr-29 09:32N 52°35' E 001°44'0 0.0
2016-Apr-29 08:32N 52°35' E 001°44'0 0.0
2016-Apr-29 07:32N 52°35' E 001°44'0 0.0
2016-Apr-29 06:32N 52°35' E 001°44'0 0.0
2016-Apr-29 05:32N 52°35' E 001°44'0 0.0
2016-Apr-29 04:32N 52°35' E 001°44'0 0.0
2016-Apr-29 03:32N 52°35' E 001°44'0 0.0
2016-Apr-29 02:32N 52°35' E 001°44'0 0.0
2016-Apr-29 01:32N 52°35' E 001°44'0 0.0
2016-Apr-29 00:32N 52°35' E 001°44'0 0.0
2016-Apr-28 23:32N 52°35' E 001°44'0 0.0
2016-Apr-28 22:31N 52°35' E 001°44'0 0.0
2016-Apr-28 21:31N 52°35' E 001°44'0 0.0
2016-Apr-28 20:31N 52°35' E 001°44'0 0.0
2016-Apr-28 19:31N 52°35' E 001°44'0 0.0
2016-Apr-28 18:31N 52°35' E 001°44'0 0.0
2016-Apr-28 17:31N 52°35' E 001°44'0 0.0
2016-Apr-28 16:31N 52°35' E 001°44'0 0.0
2016-Apr-28 15:31N 52°35' E 001°44'0 0.0
2016-Apr-28 14:31N 52°35' E 001°44'0 0.0
2016-Apr-28 13:31N 52°35' E 001°44'0 0.0
2016-Apr-28 12:31N 52°35' E 001°44'0 0.0
2016-Apr-28 11:31N 52°35' E 001°44'0 0.0
2016-Apr-28 10:31N 52°35' E 001°44'0 0.0
2016-Apr-28 09:31N 52°35' E 001°44'0 0.0
2016-Apr-28 08:31N 52°35' E 001°44'0 0.0
2016-Apr-28 07:31N 52°35' E 001°44'0 0.0
2016-Apr-28 06:31N 52°35' E 001°44'0 0.0
2016-Apr-28 05:31N 52°35' E 001°44'0 0.0
2016-Apr-28 04:31N 52°35' E 001°44'0 0.0
2016-Apr-28 03:31N 52°35' E 001°44'0 0.0
2016-Apr-28 02:31N 52°35' E 001°44'0 0.0
2016-Apr-28 01:31N 52°35' E 001°44'0 0.0
2016-Apr-28 00:31N 52°35' E 001°44'0 0.0
2016-Apr-27 23:31N 52°35' E 001°44'0 0.0
2016-Apr-27 22:31N 52°35' E 001°44'0 0.0
2016-Apr-27 21:31N 52°35' E 001°44'0 0.0
2016-Apr-27 20:31N 52°35' E 001°44'0 0.0
2016-Apr-27 19:31N 52°35' E 001°44'0 0.0
2016-Apr-27 18:31N 52°35' E 001°44'0 0.0
2016-Apr-27 17:31N 52°35' E 001°44'0 0.0
2016-Apr-27 16:31N 52°35' E 001°44'0 0.0
2016-Apr-27 15:31N 52°35' E 001°44'0 0.0
2016-Apr-27 14:31N 52°35' E 001°44'0 0.0
2016-Apr-27 13:31N 52°35' E 001°44'0 0.0
2016-Apr-27 12:34N 52°35' E 001°44'0 0.0
2016-Apr-27 11:33N 52°35' E 001°44'0 0.0
2016-Apr-27 10:33N 52°35' E 001°44'0 0.0
2016-Apr-27 09:33N 52°35' E 001°44'0 0.0
2016-Apr-27 08:33N 52°35' E 001°44'0 0.0
2016-Apr-27 07:33N 52°35' E 001°44'0 0.0
2016-Apr-27 06:33N 52°35' E 001°44'0 0.0
2016-Apr-27 05:33N 52°35' E 001°44'0 0.0
2016-Apr-27 04:33N 52°35' E 001°44'0 0.0
2016-Apr-27 03:33N 52°35' E 001°44'0 0.0
2016-Apr-27 02:33N 52°35' E 001°44'0 0.0
2016-Apr-27 01:33N 52°35' E 001°44'0 0.0
2016-Apr-27 00:33N 52°35' E 001°44'0 0.0
2016-Apr-26 23:33N 52°35' E 001°44'0 0.0
2016-Apr-26 22:33N 52°35' E 001°44'0 0.0
2016-Apr-26 21:33N 52°35' E 001°44'0 0.0
2016-Apr-26 20:33N 52°35' E 001°44'0 0.0
2016-Apr-26 19:33N 52°35' E 001°44'0 0.0
2016-Apr-26 18:33N 52°35' E 001°44'0 0.0
2016-Apr-26 17:33N 52°35' E 001°44'  
Track history (hours):
 
Tides and Currents Weather Stations Pressure Air Temp Water Temp Dewpoint Dewpoint Depression Visibility Wind Speed Wind Dir Waves Ship Positions

Malaviya Twenty

Last reported at 2016-May-06 16:33 UTC. Time now 2016-May-06 16:46 UTC.
Position N 52°36' E 001°44'.

Length 72 m; draft 4.2 m.

Type: Ship. MMSI: 419504000.

Date/timePositionNaut miles runAvg speedWind from/ knotsBaromVisibWave heightAir tempDewpointWater temp
2016-May-06 16:33N 52°36' E 001°44'0 0.0
2016-May-06 15:33N 52°36' E 001°44'0 0.0
2016-May-06 14:33N 52°36' E 001°44'0 0.0
2016-May-06 13:33N 52°36' E 001°44'0 0.0
2016-May-06 12:33N 52°36' E 001°44'0 0.0
2016-May-06 11:33N 52°36' E 001°44'0 0.0
2016-May-06 10:33N 52°36' E 001°44'0 0.0
2016-May-06 09:33N 52°36' E 001°44'0 0.0
2016-May-06 08:33N 52°36' E 001°44'0 0.0
2016-May-06 07:33N 52°36' E 001°44'0 0.0
2016-May-06 06:33N 52°36' E 001°44'0 0.0
2016-May-06 05:33N 52°36' E 001°44'0 0.0
2016-May-06 04:33N 52°36' E 001°44'0 0.0
2016-May-06 03:33N 52°36' E 001°44'0 0.0
2016-May-06 02:33N 52°36' E 001°44'0 0.0
2016-May-06 01:33N 52°36' E 001°44'0 0.0
2016-May-06 00:33N 52°36' E 001°44'0 0.0
2016-May-05 23:32N 52°36' E 001°44'0 0.0
2016-May-05 22:32N 52°36' E 001°44'0 0.0
2016-May-05 21:32N 52°36' E 001°44'0 0.0
2016-May-05 20:32N 52°36' E 001°44'0 0.0
2016-May-05 19:32N 52°36' E 001°44'0 0.0
2016-May-05 18:32N 52°36' E 001°44'0 0.0
2016-May-05 17:32N 52°36' E 001°44'0 0.0
2016-May-05 16:32N 52°36' E 001°44'0 0.0
2016-May-05 15:32N 52°36' E 001°44'0 0.0
2016-May-05 14:32N 52°36' E 001°44'1 0.6
2016-May-05 13:31N 52°36' E 001°44'0 0.0
2016-May-05 12:31N 52°35' E 001°44'0 0.0
2016-May-05 11:31N 52°35' E 001°44'0 0.0
2016-May-05 10:31N 52°35' E 001°44'0 0.0
2016-May-05 09:31N 52°35' E 001°44'0 0.0
2016-May-05 08:31N 52°36' E 001°44'0 0.0
2016-May-05 07:31N 52°35' E 001°44'0 0.0
2016-May-05 06:31N 52°36' E 001°44'0 0.0
2016-May-05 05:32N 52°35' E 001°44'2 1.6
2016-May-05 04:33N 52°36' E 001°46'7 6.9
2016-May-05 03:33N 52°43' E 001°48'9 9.3
2016-May-05 02:33N 52°51' E 001°57'9 9.4
2016-May-05 01:33N 52°57' E 002°08'10 9.7
2016-May-05 00:33N 53°00' E 002°24'9 8.5
2016-May-04 23:29N 53°09' E 002°29'7 7.1
2016-May-04 22:27N 53°16' E 002°33'3 1.0
2016-May-04 19:08N 53°19' E 002°34'0 0.5
2016-May-04 18:12N 53°19' E 002°33'3 0.8
2016-May-04 14:33N 53°22' E 002°32'1 0.5
2016-May-04 13:33N 53°22' E 002°31'33 2.5
2016-May-04 00:33N 52°54' E 002°03'1010.3
2016-May-03 23:33N 52°46' E 001°52'10 9.7
2016-May-03 22:33N 52°37' E 001°46'2 2.3
2016-May-03 21:33N 52°36' E 001°44'0 0.0
2016-May-03 20:33N 52°36' E 001°44'0 0.1
2016-May-03 19:32N 52°35' E 001°44'1 1.3
2016-May-03 18:33N 52°34' E 001°45'6 6.3
2016-May-03 17:33N 52°41' E 001°46'1110.7
2016-May-03 16:33N 52°49' E 001°56'40 0.9
2016-May-01 19:05N 53°21' E 002°36'1 2.4
2016-May-01 18:33N 53°20' E 002°34'1 0.3
2016-May-01 16:23N 53°20' E 002°34'1 0.4
2016-May-01 14:08N 53°20' E 002°32'27 1.6
2016-Apr-30 21:16N 52°57' E 002°09'710.3
2016-Apr-30 20:33N 52°52' E 001°60'10 9.8
2016-Apr-30 19:33N 52°44' E 001°50'10 9.7
2016-Apr-30 18:33N 52°35' E 001°45'1 1.0
2016-Apr-30 17:31N 52°35' E 001°44'0 0.0
2016-Apr-30 16:31N 52°35' E 001°44'1 0.6
2016-Apr-30 15:33N 52°35' E 001°44'0 0.4
2016-Apr-30 14:33N 52°35' E 001°44'0 0.0
2016-Apr-30 13:33N 52°35' E 001°44'0 0.0
2016-Apr-30 12:33N 52°35' E 001°44'0 0.0
2016-Apr-30 11:33N 52°35' E 001°44'0 0.0
2016-Apr-30 10:33N 52°35' E 001°44'0 0.0
2016-Apr-30 09:29N 52°35' E 001°44'0 0.0
2016-Apr-30 08:32N 52°35' E 001°44'0 0.0
2016-Apr-30 07:32N 52°35' E 001°44'0 0.0
2016-Apr-30 06:32N 52°35' E 001°44'0 0.0
2016-Apr-30 05:32N 52°35' E 001°44'0 0.0
2016-Apr-30 04:32N 52°35' E 001°44'0 0.0
2016-Apr-30 03:32N 52°35' E 001°44'0 0.0
2016-Apr-30 02:32N 52°35' E 001°44'0 0.0
2016-Apr-30 01:32N 52°35' E 001°44'0 0.0
2016-Apr-30 00:32N 52°35' E 001°44'0 0.0
2016-Apr-29 23:32N 52°35' E 001°44'0 0.0
2016-Apr-29 22:32N 52°35' E 001°44'0 0.0
2016-Apr-29 21:32N 52°35' E 001°44'0 0.0
2016-Apr-29 20:32N 52°35' E 001°44'0 0.0
2016-Apr-29 19:32N 52°35' E 001°44'0 0.0
2016-Apr-29 18:32N 52°35' E 001°44'0 0.0
2016-Apr-29 17:32N 52°35' E 001°44'0 0.0
2016-Apr-29 16:32N 52°35' E 001°44'0 0.0
2016-Apr-29 15:32N 52°35' E 001°44'0 0.0
2016-Apr-29 14:32N 52°35' E 001°44'0 0.0
2016-Apr-29 13:32N 52°35' E 001°44'0 0.0
2016-Apr-29 12:32N 52°35' E 001°44'0 0.0
2016-Apr-29 11:32N 52°35' E 001°44'0 0.0
2016-Apr-29 10:32N 52°35' E 001°44'0 0.0
2016-Apr-29 09:32N 52°35' E 001°44'0 0.0
2016-Apr-29 08:32N 52°35' E 001°44'0 0.0
2016-Apr-29 07:32N 52°35' E 001°44'0 0.0
2016-Apr-29 06:32N 52°35' E 001°44'0 0.0
2016-Apr-29 05:32N 52°35' E 001°44'0 0.0
2016-Apr-29 04:32N 52°35' E 001°44'0 0.0
2016-Apr-29 03:32N 52°35' E 001°44'0 0.0
2016-Apr-29 02:32N 52°35' E 001°44'0 0.0
2016-Apr-29 01:32N 52°35' E 001°44'0 0.0
2016-Apr-29 00:32N 52°35' E 001°44'0 0.0
2016-Apr-28 23:32N 52°35' E 001°44'0 0.0
2016-Apr-28 22:31N 52°35' E 001°44'0 0.0
2016-Apr-28 21:31N 52°35' E 001°44'0 0.0
2016-Apr-28 20:31N 52°35' E 001°44'0 0.0
2016-Apr-28 19:31N 52°35' E 001°44'0 0.0
2016-Apr-28 18:31N 52°35' E 001°44'0 0.0
2016-Apr-28 17:31N 52°35' E 001°44'0 0.0
2016-Apr-28 16:31N 52°35' E 001°44'0 0.0
2016-Apr-28 15:31N 52°35' E 001°44'0 0.0
2016-Apr-28 14:31N 52°35' E 001°44'0 0.0
2016-Apr-28 13:31N 52°35' E 001°44'0 0.0
2016-Apr-28 12:31N 52°35' E 001°44'0 0.0
2016-Apr-28 11:31N 52°35' E 001°44'0 0.0
2016-Apr-28 10:31N 52°35' E 001°44'0 0.0
2016-Apr-28 09:31N 52°35' E 001°44'0 0.0
2016-Apr-28 08:31N 52°35' E 001°44'0 0.0
2016-Apr-28 07:31N 52°35' E 001°44'0 0.0
2016-Apr-28 06:31N 52°35' E 001°44'0 0.0
2016-Apr-28 05:31N 52°35' E 001°44'0 0.0
2016-Apr-28 04:31N 52°35' E 001°44'0 0.0
2016-Apr-28 03:31N 52°35' E 001°44'0 0.0
2016-Apr-28 02:31N 52°35' E 001°44'0 0.0
2016-Apr-28 01:31N 52°35' E 001°44'0 0.0
2016-Apr-28 00:31N 52°35' E 001°44'0 0.0
2016-Apr-27 23:31N 52°35' E 001°44'0 0.0
2016-Apr-27 22:31N 52°35' E 001°44'0 0.0
2016-Apr-27 21:31N 52°35' E 001°44'0 0.0
2016-Apr-27 20:31N 52°35' E 001°44'0 0.0
2016-Apr-27 19:31N 52°35' E 001°44'0 0.0
2016-Apr-27 18:31N 52°35' E 001°44'0 0.0
2016-Apr-27 17:31N 52°35' E 001°44'0 0.0
2016-Apr-27 16:31N 52°35' E 001°44'0 0.0
2016-Apr-27 15:31N 52°35' E 001°44'0 0.0
2016-Apr-27 14:31N 52°35' E 001°44'0 0.0
2016-Apr-27 13:31N 52°35' E 001°44'0 0.0
2016-Apr-27 12:34N 52°35' E 001°44'0 0.0
2016-Apr-27 11:33N 52°35' E 001°44'0 0.0
2016-Apr-27 10:33N 52°35' E 001°44'0 0.0
2016-Apr-27 09:33N 52°35' E 001°44'0 0.0
2016-Apr-27 08:33N 52°35' E 001°44'0 0.0
2016-Apr-27 07:33N 52°35' E 001°44'0 0.0
2016-Apr-27 06:33N 52°35' E 001°44'0 0.0
2016-Apr-27 05:33N 52°35' E 001°44'0 0.0
2016-Apr-27 04:33N 52°35' E 001°44'0 0.0
2016-Apr-27 03:33N 52°35' E 001°44'0 0.0
2016-Apr-27 02:33N 52°35' E 001°44'0 0.0
2016-Apr-27 01:33N 52°35' E 001°44'0 0.0
2016-Apr-27 00:33N 52°35' E 001°44'0 0.0
2016-Apr-26 23:33N 52°35' E 001°44'0 0.0
2016-Apr-26 22:33N 52°35' E 001°44'0 0.0
2016-Apr-26 21:33N 52°35' E 001°44'0 0.0
2016-Apr-26 20:33N 52°35' E 001°44'0 0.0
2016-Apr-26 19:33N 52°35' E 001°44'0 0.0
2016-Apr-26 18:33N 52°35' E 001°44'0 0.0
2016-Apr-26 17:33N 52°35' E 001°44'  

Dump ship's entire track history